Startpagina
METAR-TAF:

METAR-TAF

Vliegvelden :

Wolgograd, Rusland

breedte: 48-47N, lengte: 044-22E, hoogte: 145 m

Actueel weer

Dit bericht is 45 minuten geleden gemaakt, om 20:30 UTC
Wind 12 kt uit het zuidoosten
Temperatuur -12°C
Vochtigheid 78%
Druk 1027 hPa
Zicht 10 km of meer
geen wolken onder 1500 m en geen cumulonimbus

METAR: URWW 162030Z 13006MPS CAVOK M12/M15 Q1027 R06/450250 NOSIG

Tijdstip: 00:15 (21:15 UTC)

Verwachting

Dit bericht is 1 uur en het 17 minuten geleden gemaakt, om 19:58 UTC
Verwachting geldig van 16 om 21 UTC tot 17 om 06 UTC
Wind 12 kt uit het oostzuidoosten met uitschieters tot 23 kt
Zicht: 2100 m
Gebroken wolken op 700 ft
Gebroken wolken op 2000 ft, Cumulonimbus.
nevel
Tijdelijke
van 17 om 00 UTC tot 17 om 06 UTC
Wind 10 kt uit het oosten met uitschieters tot 19 kt
Zicht: 1000 m
Gebroken wolken op 300 ft
Gebroken wolken op 2000 ft, Cumulonimbus.
sneeuwbuien

TAF: URWW 161958Z 1621/1706 12006G12MPS 2100 BR BKN007 BKN020CB TEMPO 1700/1706 09005G10MPS 1000 SHSN BKN003 BKN020CB

Waarnemingen en weersverwachtingen van meer dan 4000 vliegvelden (METAR en TAF).

De beschikbare stations zijn de gele en rode punten op de kaart.

Ga met uw muis naar het station om de naam te zien.

Klik dan om waarnemingen en weersverwachtingen te zien.

kaart wijzigen: klik op de groene knoppen met een zwart kruis om in te zoomen, op de groene knop met een streepje om uit te zoomen of op de groene pijlen voor aangrenzende kaarten.


METAR-TAF: